createdAt,value
2019-05-03T00:02:26.722Z,96772.56
2019-05-03T00:04:57.635Z,96778.96
2019-05-03T00:07:25.154Z,96773.83
2019-05-03T00:09:52.626Z,96771.16
2019-05-03T00:12:21.983Z,96757.78
2019-05-03T00:14:47.586Z,96761.95
2019-05-03T00:17:15.045Z,96764.73
2019-05-03T00:19:42.501Z,96761.70
2019-05-03T00:22:12.219Z,96751.62
2019-05-03T00:24:37.596Z,96754.09
2019-05-03T00:27:05.063Z,96752.97
2019-05-03T00:29:32.639Z,96756.20
2019-05-03T00:32:01.772Z,96754.16
2019-05-03T00:34:27.441Z,96748.03
2019-05-03T00:36:55.435Z,96754.37
2019-05-03T00:39:24.341Z,96748.97
2019-05-03T00:41:52.078Z,96755.95
2019-05-03T00:44:19.323Z,96750.01
2019-05-03T00:46:47.451Z,96741.85
2019-05-03T00:49:14.900Z,96741.72
2019-05-03T00:51:42.453Z,96753.33
2019-05-03T00:54:09.826Z,96748.22
2019-05-03T00:56:37.271Z,96745.38
2019-05-03T00:59:04.751Z,96745.23
2019-05-03T01:01:32.237Z,96746.53
2019-05-03T01:04:01.651Z,96741.42
2019-05-03T01:06:27.203Z,96738.38
2019-05-03T01:08:54.676Z,96741.04
2019-05-03T01:11:22.425Z,96743.96
2019-05-03T01:13:51.985Z,96745.20
2019-05-03T01:16:17.154Z,96737.98
2019-05-03T01:18:44.590Z,96742.15
2019-05-03T01:21:12.045Z,96737.80
2019-05-03T01:23:39.538Z,96740.78
2019-05-03T01:26:07.022Z,96739.20
2019-05-03T01:28:34.505Z,96732.49
2019-05-03T01:31:02.564Z,96733.25
2019-05-03T01:33:29.569Z,96737.10
2019-05-03T01:35:57.383Z,96738.26
2019-05-03T01:38:24.952Z,96732.75
2019-05-03T01:40:52.596Z,96738.98
2019-05-03T01:43:22.142Z,96735.12
2019-05-03T01:45:47.756Z,96737.09
2019-05-03T01:48:17.174Z,96743.42
2019-05-03T01:53:37.077Z,96733.95
2019-05-03T01:56:04.585Z,96741.28
2019-05-03T01:58:32.455Z,96739.41
2019-05-03T02:00:59.568Z,96744.59
2019-05-03T02:03:32.506Z,96743.80
2019-05-03T02:05:59.390Z,96740.00
2019-05-03T02:08:26.864Z,96737.27
2019-05-03T02:10:54.312Z,96741.14
2019-05-03T02:13:22.966Z,96742.52
2019-05-03T02:15:49.271Z,96736.20
2019-05-03T02:18:16.714Z,96739.72
2019-05-03T02:20:44.190Z,96736.78
2019-05-03T02:23:11.994Z,96741.83
2019-05-03T02:25:39.163Z,96735.53
2019-05-03T02:28:06.596Z,96733.91
2019-05-03T02:30:34.440Z,96745.34
2019-05-03T02:33:04.023Z,96743.31
2019-05-03T02:35:29.420Z,96745.11
2019-05-03T02:37:56.882Z,96738.95
2019-05-03T02:40:24.810Z,96737.64
2019-05-03T02:42:57.320Z,96732.38
2019-05-03T02:45:25.905Z,96731.84
2019-05-03T02:47:55.409Z,96723.55
2019-05-03T02:50:20.519Z,96720.98
2019-05-03T02:52:47.977Z,96723.55
2019-05-03T02:55:16.254Z,96722.70
2019-05-03T02:57:46.295Z,96718.38
2019-05-03T03:00:11.328Z,96717.89
2019-05-03T03:02:38.787Z,96718.31
2019-05-03T03:05:06.241Z,96716.97
2019-05-03T03:07:33.699Z,96720.42
2019-05-03T03:10:01.147Z,96715.42
2019-05-03T03:12:28.645Z,96715.83
2019-05-03T03:14:56.158Z,96713.10
2019-05-03T03:17:25.420Z,96702.25
2019-05-03T03:19:51.128Z,96704.80
2019-05-03T03:22:18.749Z,96698.77
2019-05-03T03:24:46.208Z,96705.22
2019-05-03T03:27:16.087Z,96701.56
2019-05-03T03:29:41.153Z,96704.42
2019-05-03T03:32:17.638Z,96701.25
2019-05-03T03:34:53.343Z,96705.17
2019-05-03T03:37:10.799Z,96693.14
2019-05-03T03:39:37.535Z,96693.08
2019-05-03T03:42:05.255Z,96684.67
2019-05-03T03:44:32.487Z,96683.25
2019-05-03T03:46:59.933Z,96681.27
2019-05-03T03:49:27.505Z,96679.12
2019-05-03T03:51:56.340Z,96678.13
2019-05-03T03:54:22.535Z,96672.78
2019-05-03T03:56:59.287Z,96681.39
2019-05-03T03:59:20.331Z,96682.84
2019-05-03T04:01:47.806Z,96682.84
2019-05-03T04:04:16.098Z,96673.58
2019-05-03T04:06:42.812Z,96676.62
2019-05-03T04:09:10.459Z,96679.48
2019-05-03T04:11:37.923Z,96675.62
2019-05-03T04:14:05.536Z,96679.94
2019-05-03T04:16:32.881Z,96680.04
2019-05-03T04:19:00.344Z,96684.77
2019-05-03T04:21:27.829Z,96676.41
2019-05-03T04:23:55.786Z,96682.02
2019-05-03T04:26:27.449Z,96682.56
2019-05-03T04:28:50.296Z,96685.05
2019-05-03T04:31:17.813Z,96690.34
2019-05-03T04:33:45.284Z,96692.59
2019-05-03T04:36:12.733Z,96695.03
2019-05-03T04:38:40.357Z,96693.00
2019-05-03T04:41:07.834Z,96697.66
2019-05-03T04:43:35.719Z,96690.85
2019-05-03T04:46:20.527Z,96697.59
2019-05-03T04:48:48.010Z,96700.87
2019-05-03T04:51:16.658Z,96702.97
2019-05-03T04:53:45.459Z,96703.77
2019-05-03T04:56:11.375Z,96706.88
2019-05-03T04:58:38.820Z,96697.38
2019-05-03T05:01:06.534Z,96704.81
2019-05-03T05:03:36.209Z,96704.02
2019-05-03T05:06:01.555Z,96704.68
2019-05-03T05:08:29.105Z,96716.47
2019-05-03T05:10:56.560Z,96719.02
2019-05-03T05:13:25.010Z,96720.23
2019-05-03T05:15:51.528Z,96713.01
2019-05-03T05:18:26.291Z,96715.39
2019-05-03T05:20:52.301Z,96713.55
2019-05-03T05:23:19.857Z,96716.80
2019-05-03T05:25:51.035Z,96711.92
2019-05-03T05:28:19.337Z,96718.06
2019-05-03T05:30:46.788Z,96716.86
2019-05-03T05:33:19.834Z,96723.44
2019-05-03T05:35:47.288Z,96721.81
2019-05-03T05:38:15.050Z,96724.20
2019-05-03T05:40:42.347Z,96731.47
2019-05-03T05:43:09.790Z,96727.94
2019-05-03T05:45:37.250Z,96723.86
2019-05-03T05:48:05.281Z,96735.82
2019-05-03T05:50:34.501Z,96729.41
2019-05-03T05:53:00.368Z,96728.92
2019-05-03T05:55:34.488Z,96734.21
2019-05-03T05:58:12.800Z,96733.48
2019-05-03T06:00:55.256Z,96731.25
2019-05-03T06:03:22.666Z,96736.55
2019-05-03T06:05:50.149Z,96740.63
2019-05-03T06:08:20.427Z,96738.37
2019-05-03T06:10:51.410Z,96733.27
2019-05-03T06:13:19.040Z,96735.96
2019-05-03T06:15:48.986Z,96733.09
2019-05-03T06:18:20.459Z,96731.16
2019-05-03T06:20:57.840Z,96735.41
2019-05-03T06:23:30.328Z,96740.93
2019-05-03T06:25:57.976Z,96744.63
2019-05-03T06:28:26.789Z,96741.96
2019-05-03T06:31:14.893Z,96750.02
2019-05-03T06:33:45.148Z,96750.81
2019-05-03T06:36:12.642Z,96758.67
2019-05-03T06:38:42.260Z,96754.86
2019-05-03T06:41:07.966Z,96749.44
2019-05-03T06:43:39.623Z,96746.95
2019-05-03T06:46:05.176Z,96748.98
2019-05-03T06:48:31.998Z,96751.27
2019-05-03T06:51:00.334Z,96743.45
2019-05-03T06:53:25.832Z,96755.36
2019-05-03T06:55:55.257Z,96756.02
2019-05-03T06:58:31.218Z,96755.11
2019-05-03T07:00:53.041Z,96756.41
2019-05-03T07:03:22.481Z,96755.02
2019-05-03T07:09:00.930Z,96752.63
2019-05-03T07:11:28.421Z,96757.20
2019-05-03T07:13:55.889Z,96754.11
2019-05-03T07:16:25.273Z,96754.56
2019-05-03T07:18:50.910Z,96755.54
2019-05-03T07:21:18.377Z,96749.06
2019-05-03T07:23:45.978Z,96749.69
2019-05-03T07:26:15.069Z,96745.42
2019-05-03T07:28:46.836Z,96739.08
2019-05-03T07:31:08.618Z,96741.73
2019-05-03T07:33:36.274Z,96739.86
2019-05-03T07:36:05.318Z,96741.20
2019-05-03T07:38:31.257Z,96748.28
2019-05-03T07:40:58.708Z,96745.94
2019-05-03T07:43:26.722Z,96740.64
2019-05-03T07:45:55.218Z,96742.94
2019-05-03T07:48:21.943Z,96741.66
2019-05-03T07:50:49.431Z,96739.86
2019-05-03T07:53:16.892Z,96743.13
2019-05-03T07:55:50.020Z,96736.36
2019-05-03T07:58:17.831Z,96740.81
2019-05-03T08:00:45.304Z,96732.25
2019-05-03T08:03:12.823Z,96732.88
2019-05-03T08:05:40.274Z,96734.50
2019-05-03T08:08:07.732Z,96725.13
2019-05-03T08:10:35.394Z,96718.23
2019-05-03T08:13:04.704Z,96726.84
2019-05-03T08:15:30.878Z,96724.18
2019-05-03T08:17:58.384Z,96723.59
2019-05-03T08:20:25.879Z,96715.07
2019-05-03T08:22:54.692Z,96708.90
2019-05-03T08:25:20.875Z,96710.38
2019-05-03T08:27:48.347Z,96716.13
2019-05-03T08:30:15.831Z,96711.94
2019-05-03T08:32:49.019Z,96714.42
2019-05-03T08:35:20.157Z,96713.59
2019-05-03T08:38:02.509Z,96719.39
2019-05-03T08:40:29.999Z,96713.63
2019-05-03T08:42:57.454Z,96715.59
2019-05-03T08:45:25.588Z,96709.16
2019-05-03T08:47:52.444Z,96705.08
2019-05-03T08:50:21.538Z,96705.28
2019-05-03T08:52:47.432Z,96697.64
2019-05-03T08:55:15.903Z,96698.63
2019-05-03T08:57:44.609Z,96704.25
2019-05-03T09:00:14.473Z,96703.85
2019-05-03T09:02:41.296Z,96703.87
2019-05-03T09:05:08.984Z,96699.83
2019-05-03T09:07:36.490Z,96696.38
2019-05-03T09:10:12.443Z,96698.89
2019-05-03T09:12:42.602Z,96697.53
2019-05-03T09:15:10.069Z,96700.30
2019-05-03T09:17:37.512Z,96695.41
2019-05-03T09:20:05.259Z,96697.43
2019-05-03T09:22:34.760Z,96694.62
2019-05-03T09:24:59.950Z,96694.80
2019-05-03T09:27:27.404Z,96694.45
2019-05-03T09:29:55.850Z,96681.91
2019-05-03T09:32:22.533Z,96682.67
2019-05-03T09:34:49.980Z,96688.75
2019-05-03T09:37:17.429Z,96684.55
2019-05-03T09:39:44.946Z,96681.17
2019-05-03T09:42:12.379Z,96678.70
2019-05-03T09:44:39.837Z,96684.25
2019-05-03T09:47:07.336Z,96681.07
2019-05-03T09:49:34.942Z,96675.61
2019-05-03T09:52:03.153Z,96688.66
2019-05-03T09:54:34.768Z,96683.39
2019-05-03T09:57:00.366Z,96687.08
2019-05-03T09:59:27.922Z,96690.12
2019-05-03T10:01:55.440Z,96684.84
2019-05-03T10:04:22.913Z,96681.30
2019-05-03T10:06:50.372Z,96678.81
2019-05-03T10:09:17.983Z,96674.75
2019-05-03T10:11:46.121Z,96669.22
2019-05-03T10:14:15.328Z,96669.77
2019-05-03T10:16:40.647Z,96665.36
2019-05-03T10:19:08.161Z,96668.50
2019-05-03T10:21:35.676Z,96664.97
2019-05-03T10:24:03.174Z,96667.43
2019-05-03T10:26:30.616Z,96662.98
2019-05-03T10:28:58.062Z,96652.80
2019-05-03T10:31:25.705Z,96653.16
2019-05-03T10:33:55.741Z,96650.68
2019-05-03T10:36:24.932Z,96649.97
2019-05-03T10:38:51.010Z,96654.50
2019-05-03T10:41:18.448Z,96646.30
2019-05-03T10:43:45.922Z,96652.52
2019-05-03T10:46:15.941Z,96641.44
2019-05-03T10:48:42.011Z,96644.73
2019-05-03T10:51:09.620Z,96648.70
2019-05-03T10:53:38.104Z,96644.38
2019-05-03T10:56:13.449Z,96640.61
2019-05-03T10:58:38.811Z,96634.20
2019-05-03T11:01:06.269Z,96632.42
2019-05-03T11:03:34.329Z,96631.34
2019-05-03T11:06:01.567Z,96621.96
2019-05-03T11:08:29.014Z,96620.89
2019-05-03T11:10:56.522Z,96619.58
2019-05-03T11:13:26.302Z,96616.92
2019-05-03T11:15:51.590Z,96609.64
2019-05-03T11:18:19.074Z,96605.52
2019-05-03T11:20:47.249Z,96599.94
2019-05-03T11:23:14.651Z,96597.10
2019-05-03T11:25:41.840Z,96605.69
2019-05-03T11:28:11.891Z,96603.58
2019-05-03T11:30:51.637Z,96596.83
2019-05-03T11:33:16.858Z,96605.08
2019-05-03T11:35:59.227Z,96602.09
2019-05-03T11:38:26.689Z,96596.36
2019-05-03T11:40:56.022Z,96597.55
2019-05-03T11:43:21.234Z,96591.80
2019-05-03T11:45:48.245Z,96583.83
2019-05-03T11:48:15.246Z,96582.92
2019-05-03T11:50:42.242Z,96577.55
2019-05-03T11:53:09.714Z,96574.47
2019-05-03T11:55:37.170Z,96571.55
2019-05-03T11:58:05.619Z,96579.41
2019-05-03T12:00:32.189Z,96572.86
2019-05-03T12:03:10.358Z,96571.14
2019-05-03T12:05:37.868Z,96563.92
2019-05-03T12:08:05.534Z,96557.05
2019-05-03T12:10:49.890Z,96565.43
2019-05-03T12:13:05.066Z,96560.64
2019-05-03T12:15:32.170Z,96556.33
2019-05-03T12:18:05.573Z,96556.11
2019-05-03T12:20:32.044Z,96550.98
2019-05-03T12:22:58.769Z,96553.73
2019-05-03T12:25:26.399Z,96545.55
2019-05-03T12:27:53.221Z,96537.56
2019-05-03T12:30:20.856Z,96543.39
2019-05-03T12:32:48.309Z,96535.92
2019-05-03T12:35:15.771Z,96530.53
2019-05-03T12:37:42.782Z,96522.89
2019-05-03T12:40:09.769Z,96519.27
2019-05-03T12:42:36.874Z,96521.74
2019-05-03T12:45:04.555Z,96512.03
2019-05-03T12:47:30.956Z,96510.13
2019-05-03T12:49:57.971Z,96511.30
2019-05-03T12:52:26.760Z,96508.52
2019-05-03T12:54:52.003Z,96506.59
2019-05-03T12:57:19.343Z,96500.91
2019-05-03T12:59:46.366Z,96506.00
2019-05-03T13:02:26.167Z,96504.02
2019-05-03T13:04:55.270Z,96500.34
2019-05-03T13:07:34.688Z,96495.17
2019-05-03T13:10:00.001Z,96496.03
2019-05-03T13:12:27.020Z,96494.15
2019-05-03T13:14:54.021Z,96488.60
2019-05-03T13:22:01.271Z,96473.68
2019-05-03T13:24:28.275Z,96474.36
2019-05-03T13:26:55.297Z,96472.63
2019-05-03T13:29:22.285Z,96466.17
2019-05-03T13:32:00.694Z,96470.49
2019-05-03T13:34:16.297Z,96460.87
2019-05-03T13:36:45.485Z,96461.03
2019-05-03T13:39:14.188Z,96455.86
2019-05-03T13:41:37.410Z,96447.61
2019-05-03T13:44:05.222Z,96447.08
2019-05-03T13:46:31.686Z,96445.63
2019-05-03T13:48:58.697Z,96442.13
2019-05-03T13:51:25.692Z,96438.69
2019-05-03T13:53:54.904Z,96438.88
2019-05-03T13:56:19.754Z,96433.35
2019-05-03T13:58:46.855Z,96438.03
2019-05-03T14:01:14.743Z,96430.09
2019-05-03T14:03:41.218Z,96431.28
2019-05-03T14:06:09.380Z,96431.83
2019-05-03T14:08:35.530Z,96425.23
2019-05-03T14:11:02.506Z,96423.38
2019-05-03T14:13:29.999Z,96418.70
2019-05-03T14:15:57.034Z,96420.99
2019-05-03T14:18:25.583Z,96414.52
2019-05-03T14:20:55.076Z,96416.45
2019-05-03T14:23:21.925Z,96417.50
2019-05-03T14:25:49.385Z,96418.02
2019-05-03T14:28:16.842Z,96419.89
2019-05-03T14:30:45.431Z,96409.55
2019-05-03T14:33:11.802Z,96411.80
2019-05-03T14:35:39.371Z,96406.67
2019-05-03T14:38:06.390Z,96411.41
2019-05-03T14:40:33.860Z,96419.39
2019-05-03T14:43:01.327Z,96406.43
2019-05-03T14:45:28.779Z,96401.48
2019-05-03T14:47:57.693Z,96396.80
2019-05-03T14:50:25.466Z,96397.27
2019-05-03T14:52:51.904Z,96400.30
2019-05-03T14:55:25.090Z,96396.69
2019-05-03T14:57:52.012Z,96393.81
2019-05-03T15:00:25.121Z,96394.53
2019-05-03T15:02:55.377Z,96398.31
2019-05-03T15:05:20.449Z,96399.66
2019-05-03T15:07:47.996Z,96402.94
2019-05-03T15:10:15.452Z,96397.00
2019-05-03T15:12:45.013Z,96395.93
2019-05-03T15:15:10.459Z,96395.47
2019-05-03T15:17:37.932Z,96388.34
2019-05-03T15:20:05.435Z,96390.91
2019-05-03T15:22:34.589Z,96392.42
2019-05-03T15:25:00.067Z,96395.77
2019-05-03T15:27:27.525Z,96388.75
2019-05-03T15:29:55.519Z,96386.94
2019-05-03T15:32:22.184Z,96386.94
2019-05-03T15:34:49.665Z,96380.23
2019-05-03T15:37:17.249Z,96383.23
2019-05-03T15:39:45.197Z,96383.95
2019-05-03T15:42:14.508Z,96382.42
2019-05-03T15:44:45.481Z,96381.88
2019-05-03T15:47:18.804Z,96387.58
2019-05-03T15:49:46.329Z,96383.42
2019-05-03T15:52:15.263Z,96391.53
2019-05-03T15:54:41.301Z,96394.96
2019-05-03T15:57:08.867Z,96391.31
2019-05-03T15:59:36.375Z,96388.26
2019-05-03T16:02:04.683Z,96399.34
2019-05-03T16:04:32.823Z,96393.58
2019-05-03T16:07:00.318Z,96392.85
2019-05-03T16:09:27.848Z,96395.56
2019-05-03T16:11:55.617Z,96408.14
2019-05-03T16:14:24.295Z,96402.34
2019-05-03T16:16:50.379Z,96402.95
2019-05-03T16:19:18.003Z,96410.18
2019-05-03T16:21:45.500Z,96410.39
2019-05-03T16:24:12.994Z,96405.70
2019-05-03T16:26:46.995Z,96411.86
2019-05-03T16:29:15.033Z,96405.17
2019-05-03T16:31:40.927Z,96404.83
2019-05-03T16:34:08.435Z,96408.70
2019-05-03T16:36:36.915Z,96404.92
2019-05-03T16:39:04.756Z,96410.32
2019-05-03T16:41:30.899Z,96414.97
2019-05-03T16:43:58.375Z,96414.23
2019-05-03T16:46:26.586Z,96416.26
2019-05-03T16:48:54.035Z,96420.66
2019-05-03T16:51:21.477Z,96424.60
2019-05-03T16:53:49.057Z,96420.45
2019-05-03T16:56:17.114Z,96420.25
2019-05-03T16:58:44.712Z,96422.21
2019-05-03T17:01:13.578Z,96416.40
2019-05-03T17:03:41.382Z,96425.20
2019-05-03T17:06:07.594Z,96415.66
2019-05-03T17:11:27.296Z,96429.64
2019-05-03T17:13:55.062Z,96429.34
2019-05-03T17:16:22.266Z,96428.45
2019-05-03T17:18:49.709Z,96431.33
2019-05-03T17:21:17.157Z,96431.93
2019-05-03T17:23:44.711Z,96431.48
2019-05-03T17:26:12.327Z,96432.14
2019-05-03T17:28:39.784Z,96434.70
2019-05-03T17:31:07.270Z,96437.89
2019-05-03T17:33:34.960Z,96434.44
2019-05-03T17:36:02.366Z,96441.19
2019-05-03T17:38:29.938Z,96449.95
2019-05-03T17:41:08.984Z,96452.59
2019-05-03T17:43:38.870Z,96451.61
2019-05-03T17:46:06.329Z,96449.28
2019-05-03T17:48:34.867Z,96446.95
2019-05-03T17:51:01.406Z,96450.83
2019-05-03T17:56:24.433Z,96460.16
2019-05-03T17:58:55.020Z,96463.63
2019-05-03T18:01:21.009Z,96456.84
2019-05-03T18:04:04.004Z,96456.64
2019-05-03T18:09:16.167Z,96471.37
2019-05-03T18:14:35.937Z,96465.27
2019-05-03T18:17:05.533Z,96468.57
2019-05-03T18:19:30.999Z,96471.97
2019-05-03T18:21:58.459Z,96474.72
2019-05-03T18:24:25.908Z,96466.16
2019-05-03T18:26:53.386Z,96478.26
2019-05-03T18:29:20.830Z,96481.99
2019-05-03T18:31:48.304Z,96476.38
2019-05-03T18:34:20.027Z,96476.03
2019-05-03T18:36:45.035Z,96483.73
2019-05-03T18:39:10.912Z,96478.17
2019-05-03T18:41:38.468Z,96479.86
2019-05-03T18:44:08.928Z,96478.75
2019-05-03T18:46:51.381Z,96482.76
2019-05-03T18:49:18.881Z,96483.38
2019-05-03T18:51:46.329Z,96485.47
2019-05-03T18:54:15.504Z,96487.83
2019-05-03T18:56:41.427Z,96489.72
2019-05-03T18:59:08.905Z,96490.05
2019-05-03T19:01:36.404Z,96496.31
2019-05-03T19:04:06.760Z,96503.11
2019-05-03T19:06:34.806Z,96503.72
2019-05-03T19:11:58.647Z,96501.02
2019-05-03T19:14:26.124Z,96508.64
2019-05-03T19:16:54.552Z,96508.80
2019-05-03T19:19:21.537Z,96510.64
2019-05-03T19:21:49.023Z,96517.86
2019-05-03T19:24:16.518Z,96515.63
2019-05-03T19:26:45.081Z,96515.63
2019-05-03T19:29:11.593Z,96515.79
2019-05-03T19:31:39.078Z,96514.80
2019-05-03T19:34:06.564Z,96522.72
2019-05-03T19:36:34.827Z,96525.35
2019-05-03T19:39:01.605Z,96525.14
2019-05-03T19:41:29.051Z,96531.16
2019-05-03T19:43:56.502Z,96533.87
2019-05-03T19:46:24.859Z,96531.36
2019-05-03T19:48:51.467Z,96535.39
2019-05-03T19:51:18.953Z,96535.59
2019-05-03T19:53:48.265Z,96540.85
2019-05-03T19:56:15.730Z,96545.33
2019-05-03T19:58:44.192Z,96537.70
2019-05-03T20:04:08.771Z,96545.84
2019-05-03T20:06:39.169Z,96545.93
2019-05-03T20:09:10.386Z,96543.95
2019-05-03T20:11:38.027Z,96543.55
2019-05-03T20:14:05.527Z,96541.77
2019-05-03T20:16:34.682Z,96546.43
2019-05-03T20:19:00.490Z,96545.75
2019-05-03T20:21:27.940Z,96551.06
2019-05-03T20:23:55.622Z,96550.58
2019-05-03T20:26:25.160Z,96552.04
2019-05-03T20:28:50.495Z,96552.47
2019-05-03T20:31:17.981Z,96553.41
2019-05-03T20:33:45.833Z,96554.48
2019-05-03T20:36:12.927Z,96553.58
2019-05-03T20:38:40.398Z,96552.55
2019-05-03T20:41:07.989Z,96550.82
2019-05-03T20:46:35.949Z,96557.16
2019-05-03T20:49:04.415Z,96562.08
2019-05-03T20:51:31.034Z,96558.72
2019-05-03T20:53:58.558Z,96553.47
2019-05-03T20:56:26.033Z,96553.91
2019-05-03T20:58:55.001Z,96555.38
2019-05-03T21:01:21.025Z,96554.23
2019-05-03T21:03:48.491Z,96556.73
2019-05-03T21:06:15.969Z,96552.88
2019-05-03T21:08:52.952Z,96546.56
2019-05-03T21:11:11.003Z,96540.71
2019-05-03T21:13:42.038Z,96542.07
2019-05-03T21:16:06.895Z,96546.16
2019-05-03T21:18:34.546Z,96549.89
2019-05-03T21:21:06.377Z,96549.03
2019-05-03T21:23:35.707Z,96547.97
2019-05-03T21:26:12.084Z,96548.95
2019-05-03T21:28:31.273Z,96556.05
2019-05-03T21:30:58.748Z,96554.02
2019-05-03T21:33:26.222Z,96556.02
2019-05-03T21:35:55.564Z,96556.02
2019-05-03T21:38:21.254Z,96557.30
2019-05-03T21:40:48.744Z,96559.38
2019-05-03T21:43:16.183Z,96551.40
2019-05-03T21:45:45.363Z,96562.07
2019-05-03T21:48:14.464Z,96554.78
2019-05-03T21:50:40.101Z,96558.31
2019-05-03T21:53:07.559Z,96561.02
2019-05-03T21:55:35.491Z,96559.55
2019-05-03T21:58:04.243Z,96562.25
2019-05-03T22:03:22.418Z,96558.24
2019-05-03T22:05:55.087Z,96557.94
2019-05-03T22:08:17.409Z,96555.95
2019-05-03T22:10:45.126Z,96556.89
2019-05-03T22:13:12.459Z,96554.73
2019-05-03T22:15:41.596Z,96549.75
2019-05-03T22:18:15.222Z,96561.02
2019-05-03T22:20:45.373Z,96554.38
2019-05-03T22:23:16.791Z,96551.74
2019-05-03T22:25:44.282Z,96548.70
2019-05-03T22:28:11.878Z,96547.08
2019-05-03T22:30:39.321Z,96551.55
2019-05-03T22:33:06.766Z,96551.14
2019-05-03T22:35:35.300Z,96551.36
2019-05-03T22:38:04.039Z,96561.31
2019-05-03T22:40:29.203Z,96551.92
2019-05-03T22:42:56.684Z,96550.98
2019-05-03T22:45:24.295Z,96550.75
2019-05-03T22:47:51.834Z,96547.45
2019-05-03T22:50:19.290Z,96546.97
2019-05-03T22:52:46.823Z,96547.23
2019-05-03T22:55:15.292Z,96543.69
2019-05-03T22:57:41.812Z,96545.27
2019-05-03T23:00:09.272Z,96547.67
2019-05-03T23:02:36.780Z,96544.97
2019-05-03T23:05:04.682Z,96546.95
2019-05-03T23:07:31.723Z,96540.75
2019-05-03T23:09:59.200Z,96543.63
2019-05-03T23:12:26.702Z,96533.48
2019-05-03T23:14:55.125Z,96534.20
2019-05-03T23:17:21.663Z,96530.37
2019-05-03T23:19:49.138Z,96531.50
2019-05-03T23:22:31.114Z,96528.91
2019-05-03T23:24:58.686Z,96527.63
2019-05-03T23:27:26.131Z,96523.11
2019-05-03T23:29:54.510Z,96525.20
2019-05-03T23:32:21.124Z,96524.19
2019-05-03T23:34:48.587Z,96523.23
2019-05-03T23:37:16.168Z,96522.11
2019-05-03T23:39:44.602Z,96516.33
2019-05-03T23:42:11.212Z,96518.16
2019-05-03T23:44:38.662Z,96509.70
2019-05-03T23:47:10.110Z,96514.26
2019-05-03T23:49:37.628Z,96516.58
2019-05-03T23:54:57.245Z,96517.50
2019-05-03T23:57:25.150Z,96518.52
2019-05-03T23:59:54.335Z,96514.43
